sensor_id;sensor_type;location;lat;lon;timestamp;temperature;humidity
17639;DHT22;8938;53.546;9.954;2022-12-31T00:01:10;14.60;99.90
17639;DHT22;8938;53.546;9.954;2022-12-31T00:03:37;14.60;99.90
17639;DHT22;8938;53.546;9.954;2022-12-31T00:06:21;14.60;99.90
17639;DHT22;8938;53.546;9.954;2022-12-31T00:08:49;14.70;99.90
17639;DHT22;8938;53.546;9.954;2022-12-31T00:11:15;14.70;99.90
17639;DHT22;8938;53.546;9.954;2022-12-31T00:13:41;14.60;99.90
17639;DHT22;8938;53.546;9.954;2022-12-31T00:16:10;14.60;99.90
17639;DHT22;8938;53.546;9.954;2022-12-31T00:18:36;14.70;99.90
17639;DHT22;8938;53.546;9.954;2022-12-31T00:21:07;14.70;99.90
17639;DHT22;8938;53.546;9.954;2022-12-31T00:23:32;14.70;99.90
17639;DHT22;8938;53.546;9.954;2022-12-31T00:26:19;14.70;99.90
17639;DHT22;8938;53.546;9.954;2022-12-31T00:28:46;14.80;99.90
17639;DHT22;8938;53.546;9.954;2022-12-31T00:31:37;14.80;99.90
17639;DHT22;8938;53.546;9.954;2022-12-31T00:34:02;14.80;99.90
17639;DHT22;8938;53.546;9.954;2022-12-31T00:36:30;14.80;99.90
17639;DHT22;8938;53.546;9.954;2022-12-31T00:38:58;14.70;99.90
17639;DHT22;8938;53.546;9.954;2022-12-31T00:41:25;14.70;99.90
17639;DHT22;8938;53.546;9.954;2022-12-31T00:43:51;14.70;99.90
17639;DHT22;8938;53.546;9.954;2022-12-31T00:46:17;14.80;99.90
17639;DHT22;8938;53.546;9.954;2022-12-31T00:48:43;14.80;99.90
17639;DHT22;8938;53.546;9.954;2022-12-31T00:51:12;14.90;99.90
17639;DHT22;8938;53.546;9.954;2022-12-31T00:53:38;14.90;99.90
17639;DHT22;8938;53.546;9.954;2022-12-31T00:56:18;14.90;99.90
17639;DHT22;8938;53.546;9.954;2022-12-31T00:58:45;14.90;99.90
17639;DHT22;8938;53.546;9.954;2022-12-31T01:01:26;15.00;99.90
17639;DHT22;8938;53.546;9.954;2022-12-31T01:03:54;15.00;99.90
17639;DHT22;8938;53.546;9.954;2022-12-31T01:06:21;15.10;99.90
17639;DHT22;8938;53.546;9.954;2022-12-31T01:08:47;15.20;99.90
17639;DHT22;8938;53.546;9.954;2022-12-31T01:11:13;15.20;99.90
17639;DHT22;8938;53.546;9.954;2022-12-31T01:14:00;15.20;99.90
17639;DHT22;8938;53.546;9.954;2022-12-31T01:16:29;15.20;99.90
17639;DHT22;8938;53.546;9.954;2022-12-31T01:18:57;15.20;99.90
17639;DHT22;8938;53.546;9.954;2022-12-31T01:21:23;15.30;99.90
17639;DHT22;8938;53.546;9.954;2022-12-31T01:23:49;15.30;99.90
17639;DHT22;8938;53.546;9.954;2022-12-31T01:26:16;15.30;99.90
17639;DHT22;8938;53.546;9.954;2022-12-31T01:28:42;15.40;99.90
17639;DHT22;8938;53.546;9.954;2022-12-31T01:31:11;15.40;99.90
17639;DHT22;8938;53.546;9.954;2022-12-31T01:33:37;15.40;99.90
17639;DHT22;8938;53.546;9.954;2022-12-31T01:36:06;15.30;99.90
17639;DHT22;8938;53.546;9.954;2022-12-31T01:38:33;15.30;99.90
17639;DHT22;8938;53.546;9.954;2022-12-31T01:40:58;15.30;99.90
17639;DHT22;8938;53.546;9.954;2022-12-31T01:43:46;15.30;99.90
17639;DHT22;8938;53.546;9.954;2022-12-31T01:46:16;15.30;99.90
17639;DHT22;8938;53.546;9.954;2022-12-31T01:48:46;15.40;99.90
17639;DHT22;8938;53.546;9.954;2022-12-31T01:51:13;15.50;99.90
17639;DHT22;8938;53.546;9.954;2022-12-31T01:53:38;15.60;99.90
17639;DHT22;8938;53.546;9.954;2022-12-31T01:56:05;15.60;99.90
17639;DHT22;8938;53.546;9.954;2022-12-31T01:58:38;15.60;99.90
17639;DHT22;8938;53.546;9.954;2022-12-31T02:01:07;15.50;99.90
17639;DHT22;8938;53.546;9.954;2022-12-31T02:03:34;15.60;99.90
17639;DHT22;8938;53.546;9.954;2022-12-31T02:06:06;15.60;99.90
17639;DHT22;8938;53.546;9.954;2022-12-31T02:08:34;15.60;99.90
17639;DHT22;8938;53.546;9.954;2022-12-31T02:11:00;15.70;99.90
17639;DHT22;8938;53.546;9.954;2022-12-31T02:13:25;15.70;99.90
17639;DHT22;8938;53.546;9.954;2022-12-31T02:16:37;15.70;99.90
17639;DHT22;8938;53.546;9.954;2022-12-31T02:19:14;15.70;99.90
17639;DHT22;8938;53.546;9.954;2022-12-31T02:22:07;15.60;99.90
17639;DHT22;8938;53.546;9.954;2022-12-31T02:24:48;15.60;99.90
17639;DHT22;8938;53.546;9.954;2022-12-31T02:30:30;15.60;99.90
17639;DHT22;8938;53.546;9.954;2022-12-31T02:33:12;15.60;99.90
17639;DHT22;8938;53.546;9.954;2022-12-31T02:35:57;15.60;99.90
17639;DHT22;8938;53.546;9.954;2022-12-31T02:38:29;15.50;99.90
17639;DHT22;8938;53.546;9.954;2022-12-31T02:40:57;15.50;99.90
17639;DHT22;8938;53.546;9.954;2022-12-31T02:43:23;15.40;99.90
17639;DHT22;8938;53.546;9.954;2022-12-31T02:48:38;15.50;99.90
17639;DHT22;8938;53.546;9.954;2022-12-31T02:51:11;15.50;99.90
17639;DHT22;8938;53.546;9.954;2022-12-31T02:54:14;15.50;99.90
17639;DHT22;8938;53.546;9.954;2022-12-31T03:00:23;15.50;99.90
17639;DHT22;8938;53.546;9.954;2022-12-31T03:02:44;15.40;99.90
17639;DHT22;8938;53.546;9.954;2022-12-31T03:05:12;15.40;99.90
17639;DHT22;8938;53.546;9.954;2022-12-31T03:07:39;15.40;99.90
17639;DHT22;8938;53.546;9.954;2022-12-31T03:10:06;15.30;99.90
17639;DHT22;8938;53.546;9.954;2022-12-31T03:12:33;15.40;99.90
17639;DHT22;8938;53.546;9.954;2022-12-31T03:15:30;15.40;99.90
17639;DHT22;8938;53.546;9.954;2022-12-31T03:18:10;15.40;99.90
17639;DHT22;8938;53.546;9.954;2022-12-31T03:20:46;15.40;99.90
17639;DHT22;8938;53.546;9.954;2022-12-31T03:23:40;15.30;99.90
17639;DHT22;8938;53.546;9.954;2022-12-31T03:26:09;15.20;99.90
17639;DHT22;8938;53.546;9.954;2022-12-31T03:28:36;15.20;99.90
17639;DHT22;8938;53.546;9.954;2022-12-31T03:31:02;15.30;99.90
17639;DHT22;8938;53.546;9.954;2022-12-31T03:33:33;15.40;99.90
17639;DHT22;8938;53.546;9.954;2022-12-31T03:36:05;15.30;99.90
17639;DHT22;8938;53.546;9.954;2022-12-31T03:38:31;15.30;99.90
17639;DHT22;8938;53.546;9.954;2022-12-31T03:40:56;15.30;99.90
17639;DHT22;8938;53.546;9.954;2022-12-31T03:43:22;15.30;99.90
17639;DHT22;8938;53.546;9.954;2022-12-31T03:45:49;15.30;99.90
17639;DHT22;8938;53.546;9.954;2022-12-31T03:48:16;15.30;99.90
17639;DHT22;8938;53.546;9.954;2022-12-31T03:50:41;15.40;99.90
17639;DHT22;8938;53.546;9.954;2022-12-31T03:53:07;15.40;99.90
17639;DHT22;8938;53.546;9.954;2022-12-31T03:55:32;15.40;99.90
17639;DHT22;8938;53.546;9.954;2022-12-31T03:57:58;15.50;99.90
17639;DHT22;8938;53.546;9.954;2022-12-31T04:00:23;15.50;99.90
17639;DHT22;8938;53.546;9.954;2022-12-31T04:02:49;15.50;99.90
17639;DHT22;8938;53.546;9.954;2022-12-31T04:05:16;15.50;99.90
17639;DHT22;8938;53.546;9.954;2022-12-31T04:07:42;15.50;99.90
17639;DHT22;8938;53.546;9.954;2022-12-31T04:10:09;15.50;99.90
17639;DHT22;8938;53.546;9.954;2022-12-31T04:12:36;15.50;99.90
17639;DHT22;8938;53.546;9.954;2022-12-31T04:15:02;15.50;99.90
17639;DHT22;8938;53.546;9.954;2022-12-31T04:17:27;15.50;99.90
17639;DHT22;8938;53.546;9.954;2022-12-31T04:19:53;15.40;99.90
17639;DHT22;8938;53.546;9.954;2022-12-31T04:22:18;15.40;99.90
17639;DHT22;8938;53.546;9.954;2022-12-31T04:24:44;15.40;99.90
17639;DHT22;8938;53.546;9.954;2022-12-31T04:27:11;15.40;99.90
17639;DHT22;8938;53.546;9.954;2022-12-31T04:29:37;15.40;99.90
17639;DHT22;8938;53.546;9.954;2022-12-31T04:32:03;15.30;99.90
17639;DHT22;8938;53.546;9.954;2022-12-31T04:34:29;15.30;99.90
17639;DHT22;8938;53.546;9.954;2022-12-31T04:36:55;15.30;99.90
17639;DHT22;8938;53.546;9.954;2022-12-31T04:39:20;15.30;99.90
17639;DHT22;8938;53.546;9.954;2022-12-31T04:41:46;15.30;99.90
17639;DHT22;8938;53.546;9.954;2022-12-31T04:44:11;15.30;99.90
17639;DHT22;8938;53.546;9.954;2022-12-31T04:46:37;15.30;99.90
17639;DHT22;8938;53.546;9.954;2022-12-31T04:49:03;15.30;99.90
17639;DHT22;8938;53.546;9.954;2022-12-31T04:51:29;15.30;99.90
17639;DHT22;8938;53.546;9.954;2022-12-31T04:53:55;15.30;99.90
17639;DHT22;8938;53.546;9.954;2022-12-31T04:56:22;15.30;99.90
17639;DHT22;8938;53.546;9.954;2022-12-31T04:58:48;15.30;99.90
17639;DHT22;8938;53.546;9.954;2022-12-31T05:01:13;15.30;99.90
17639;DHT22;8938;53.546;9.954;2022-12-31T05:03:39;15.30;99.90
17639;DHT22;8938;53.546;9.954;2022-12-31T05:06:09;15.30;99.90
17639;DHT22;8938;53.546;9.954;2022-12-31T05:08:35;15.30;99.90
17639;DHT22;8938;53.546;9.954;2022-12-31T05:11:01;15.30;99.90
17639;DHT22;8938;53.546;9.954;2022-12-31T05:13:27;15.30;99.90
17639;DHT22;8938;53.546;9.954;2022-12-31T05:15:52;15.30;99.90
17639;DHT22;8938;53.546;9.954;2022-12-31T05:18:18;15.40;99.90
17639;DHT22;8938;53.546;9.954;2022-12-31T05:20:44;15.30;99.90
17639;DHT22;8938;53.546;9.954;2022-12-31T05:23:10;15.30;99.90
17639;DHT22;8938;53.546;9.954;2022-12-31T05:25:37;15.40;99.90
17639;DHT22;8938;53.546;9.954;2022-12-31T05:28:02;15.30;99.90
17639;DHT22;8938;53.546;9.954;2022-12-31T05:30:28;15.30;99.90
17639;DHT22;8938;53.546;9.954;2022-12-31T05:32:53;15.30;99.90
17639;DHT22;8938;53.546;9.954;2022-12-31T05:35:19;15.40;99.90
17639;DHT22;8938;53.546;9.954;2022-12-31T05:37:45;15.30;99.90
17639;DHT22;8938;53.546;9.954;2022-12-31T05:40:11;15.40;99.90
17639;DHT22;8938;53.546;9.954;2022-12-31T05:42:37;15.50;99.90
17639;DHT22;8938;53.546;9.954;2022-12-31T05:45:02;15.50;99.90
17639;DHT22;8938;53.546;9.954;2022-12-31T05:47:28;15.50;99.90
17639;DHT22;8938;53.546;9.954;2022-12-31T05:49:53;15.40;99.90
17639;DHT22;8938;53.546;9.954;2022-12-31T05:52:19;15.40;99.90
17639;DHT22;8938;53.546;9.954;2022-12-31T05:54:45;15.40;99.90
17639;DHT22;8938;53.546;9.954;2022-12-31T05:57:10;15.40;99.90
17639;DHT22;8938;53.546;9.954;2022-12-31T05:59:36;15.30;99.90
17639;DHT22;8938;53.546;9.954;2022-12-31T06:02:01;15.30;99.90
17639;DHT22;8938;53.546;9.954;2022-12-31T06:04:27;15.30;99.90
17639;DHT22;8938;53.546;9.954;2022-12-31T06:06:52;15.20;99.90
17639;DHT22;8938;53.546;9.954;2022-12-31T06:09:18;15.20;99.90
17639;DHT22;8938;53.546;9.954;2022-12-31T06:11:44;15.10;99.90
17639;DHT22;8938;53.546;9.954;2022-12-31T06:14:10;15.10;99.90
17639;DHT22;8938;53.546;9.954;2022-12-31T06:16:36;15.10;99.90
17639;DHT22;8938;53.546;9.954;2022-12-31T06:19:03;15.10;99.90
17639;DHT22;8938;53.546;9.954;2022-12-31T06:21:28;15.00;99.90
17639;DHT22;8938;53.546;9.954;2022-12-31T06:23:54;15.00;99.90
17639;DHT22;8938;53.546;9.954;2022-12-31T06:26:19;14.90;99.90
17639;DHT22;8938;53.546;9.954;2022-12-31T06:28:45;14.90;99.90
17639;DHT22;8938;53.546;9.954;2022-12-31T06:31:12;14.90;99.90
17639;DHT22;8938;53.546;9.954;2022-12-31T06:33:38;14.90;99.90
17639;DHT22;8938;53.546;9.954;2022-12-31T06:36:06;14.80;99.90
17639;DHT22;8938;53.546;9.954;2022-12-31T06:38:35;14.80;99.90
17639;DHT22;8938;53.546;9.954;2022-12-31T06:41:08;14.80;99.90
17639;DHT22;8938;53.546;9.954;2022-12-31T06:43:35;14.70;99.90
17639;DHT22;8938;53.546;9.954;2022-12-31T06:46:02;14.70;99.90
17639;DHT22;8938;53.546;9.954;2022-12-31T06:48:27;14.80;99.90
17639;DHT22;8938;53.546;9.954;2022-12-31T06:50:53;14.90;99.90
17639;DHT22;8938;53.546;9.954;2022-12-31T06:53:19;14.80;99.90
17639;DHT22;8938;53.546;9.954;2022-12-31T06:55:44;14.80;99.90
17639;DHT22;8938;53.546;9.954;2022-12-31T06:58:12;14.80;99.90
17639;DHT22;8938;53.546;9.954;2022-12-31T07:00:43;14.80;99.90
17639;DHT22;8938;53.546;9.954;2022-12-31T07:03:30;14.80;99.90
17639;DHT22;8938;53.546;9.954;2022-12-31T07:06:18;14.80;99.90
17639;DHT22;8938;53.546;9.954;2022-12-31T07:09:00;14.70;99.90
17639;DHT22;8938;53.546;9.954;2022-12-31T07:11:31;14.70;99.90
17639;DHT22;8938;53.546;9.954;2022-12-31T07:14:34;14.70;99.90
17639;DHT22;8938;53.546;9.954;2022-12-31T07:17:20;14.60;99.90
17639;DHT22;8938;53.546;9.954;2022-12-31T07:20:03;14.50;99.90
17639;DHT22;8938;53.546;9.954;2022-12-31T07:22:30;14.50;99.90
17639;DHT22;8938;53.546;9.954;2022-12-31T07:24:56;14.60;99.90
17639;DHT22;8938;53.546;9.954;2022-12-31T07:38:33;14.60;99.90
17639;DHT22;8938;53.546;9.954;2022-12-31T07:41:17;14.60;99.90
17639;DHT22;8938;53.546;9.954;2022-12-31T07:46:55;14.50;99.90
17639;DHT22;8938;53.546;9.954;2022-12-31T07:49:22;14.60;99.90
17639;DHT22;8938;53.546;9.954;2022-12-31T07:51:48;14.60;99.90
17639;DHT22;8938;53.546;9.954;2022-12-31T07:54:14;14.60;99.90
17639;DHT22;8938;53.546;9.954;2022-12-31T07:56:40;14.60;99.90
17639;DHT22;8938;53.546;9.954;2022-12-31T07:59:15;14.70;99.90
17639;DHT22;8938;53.546;9.954;2022-12-31T08:01:57;14.70;99.90
17639;DHT22;8938;53.546;9.954;2022-12-31T08:09:43;14.60;99.90
17639;DHT22;8938;53.546;9.954;2022-12-31T08:12:11;14.60;99.90
17639;DHT22;8938;53.546;9.954;2022-12-31T08:14:42;14.60;99.90
17639;DHT22;8938;53.546;9.954;2022-12-31T08:17:13;14.50;99.90
17639;DHT22;8938;53.546;9.954;2022-12-31T08:19:39;14.50;99.90
17639;DHT22;8938;53.546;9.954;2022-12-31T08:25:12;14.70;99.90
17639;DHT22;8938;53.546;9.954;2022-12-31T08:28:01;14.70;99.90
17639;DHT22;8938;53.546;9.954;2022-12-31T08:41:20;14.80;99.90
17639;DHT22;8938;53.546;9.954;2022-12-31T08:49:32;14.80;99.90
17639;DHT22;8938;53.546;9.954;2022-12-31T08:51:58;14.90;99.90
17639;DHT22;8938;53.546;9.954;2022-12-31T08:54:24;14.90;99.90
17639;DHT22;8938;53.546;9.954;2022-12-31T09:00:08;14.90;99.90
17639;DHT22;8938;53.546;9.954;2022-12-31T09:17:04;15.10;99.90
17639;DHT22;8938;53.546;9.954;2022-12-31T09:19:31;15.20;99.90
17639;DHT22;8938;53.546;9.954;2022-12-31T09:21:57;15.20;99.90
17639;DHT22;8938;53.546;9.954;2022-12-31T09:24:23;15.30;99.90
17639;DHT22;8938;53.546;9.954;2022-12-31T09:26:51;15.30;99.90
17639;DHT22;8938;53.546;9.954;2022-12-31T09:35:09;15.50;99.90
17639;DHT22;8938;53.546;9.954;2022-12-31T09:37:54;15.40;99.90
17639;DHT22;8938;53.546;9.954;2022-12-31T09:52:17;15.30;99.90
17639;DHT22;8938;53.546;9.954;2022-12-31T10:00:03;15.30;99.90
17639;DHT22;8938;53.546;9.954;2022-12-31T10:07:54;15.20;99.90
17639;DHT22;8938;53.546;9.954;2022-12-31T10:10:39;15.20;99.90
17639;DHT22;8938;53.546;9.954;2022-12-31T10:13:16;15.20;99.90
17639;DHT22;8938;53.546;9.954;2022-12-31T10:30:10;15.20;99.90
17639;DHT22;8938;53.546;9.954;2022-12-31T10:33:24;15.30;99.90
17639;DHT22;8938;53.546;9.954;2022-12-31T10:37:00;15.30;99.90
17639;DHT22;8938;53.546;9.954;2022-12-31T10:45:13;15.40;99.90
17639;DHT22;8938;53.546;9.954;2022-12-31T11:16:18;15.40;99.90
17639;DHT22;8938;53.546;9.954;2022-12-31T11:19:11;15.50;99.90
17639;DHT22;8938;53.546;9.954;2022-12-31T11:22:04;15.60;99.90
17639;DHT22;8938;53.546;9.954;2022-12-31T11:27:06;15.80;99.90
17639;DHT22;8938;53.546;9.954;2022-12-31T11:39:51;16.20;99.90
17639;DHT22;8938;53.546;9.954;2022-12-31T11:45:17;16.10;99.90
17639;DHT22;8938;53.546;9.954;2022-12-31T11:48:02;16.20;99.90
17639;DHT22;8938;53.546;9.954;2022-12-31T11:53:33;16.30;99.90
17639;DHT22;8938;53.546;9.954;2022-12-31T11:56:16;16.40;99.90
17639;DHT22;8938;53.546;9.954;2022-12-31T11:58:46;16.40;99.90
17639;DHT22;8938;53.546;9.954;2022-12-31T12:01:32;16.40;99.90
17639;DHT22;8938;53.546;9.954;2022-12-31T12:04:00;16.60;99.90
17639;DHT22;8938;53.546;9.954;2022-12-31T12:06:30;16.50;99.90
17639;DHT22;8938;53.546;9.954;2022-12-31T12:09:02;16.60;99.90
17639;DHT22;8938;53.546;9.954;2022-12-31T12:11:31;16.70;99.90
17639;DHT22;8938;53.546;9.954;2022-12-31T12:13:58;16.80;99.90
17639;DHT22;8938;53.546;9.954;2022-12-31T12:16:25;16.80;99.90
17639;DHT22;8938;53.546;9.954;2022-12-31T12:19:16;16.80;99.90
17639;DHT22;8938;53.546;9.954;2022-12-31T12:21:47;16.80;99.90
17639;DHT22;8938;53.546;9.954;2022-12-31T12:24:24;16.80;99.90
17639;DHT22;8938;53.546;9.954;2022-12-31T12:26:49;16.80;99.90
17639;DHT22;8938;53.546;9.954;2022-12-31T12:29:21;16.90;99.90
17639;DHT22;8938;53.546;9.954;2022-12-31T12:32:00;16.90;99.90
17639;DHT22;8938;53.546;9.954;2022-12-31T12:34:39;16.90;99.90
17639;DHT22;8938;53.546;9.954;2022-12-31T12:39:58;17.10;99.90
17639;DHT22;8938;53.546;9.954;2022-12-31T12:42:24;17.10;99.90
17639;DHT22;8938;53.546;9.954;2022-12-31T12:45:22;17.10;99.90
17639;DHT22;8938;53.546;9.954;2022-12-31T12:47:47;17.10;99.90
17639;DHT22;8938;53.546;9.954;2022-12-31T12:50:22;17.20;99.90
17639;DHT22;8938;53.546;9.954;2022-12-31T12:52:52;17.10;99.90
17639;DHT22;8938;53.546;9.954;2022-12-31T12:55:27;17.10;99.90
17639;DHT22;8938;53.546;9.954;2022-12-31T13:00:59;17.00;99.90
17639;DHT22;8938;53.546;9.954;2022-12-31T13:03:50;17.10;99.90
17639;DHT22;8938;53.546;9.954;2022-12-31T13:09:36;17.20;99.90
17639;DHT22;8938;53.546;9.954;2022-12-31T13:15:12;17.00;99.90
17639;DHT22;8938;53.546;9.954;2022-12-31T13:20:20;16.90;99.90
17639;DHT22;8938;53.546;9.954;2022-12-31T13:22:58;16.90;99.90
17639;DHT22;8938;53.546;9.954;2022-12-31T13:25:45;16.90;99.90
17639;DHT22;8938;53.546;9.954;2022-12-31T13:28:15;16.90;99.90
17639;DHT22;8938;53.546;9.954;2022-12-31T13:30:47;16.90;99.90
17639;DHT22;8938;53.546;9.954;2022-12-31T13:33:21;17.00;99.90
17639;DHT22;8938;53.546;9.954;2022-12-31T13:35:52;17.00;99.90
17639;DHT22;8938;53.546;9.954;2022-12-31T13:41:00;16.90;99.90
17639;DHT22;8938;53.546;9.954;2022-12-31T13:48:55;16.90;99.90
17639;DHT22;8938;53.546;9.954;2022-12-31T13:51:33;16.90;99.90
17639;DHT22;8938;53.546;9.954;2022-12-31T13:56:41;17.10;99.90
17639;DHT22;8938;53.546;9.954;2022-12-31T13:59:18;17.00;99.90
17639;DHT22;8938;53.546;9.954;2022-12-31T14:01:56;16.90;99.90
17639;DHT22;8938;53.546;9.954;2022-12-31T14:04:34;16.90;99.90
17639;DHT22;8938;53.546;9.954;2022-12-31T14:07:16;16.90;99.90
17639;DHT22;8938;53.546;9.954;2022-12-31T14:09:42;17.00;99.90
17639;DHT22;8938;53.546;9.954;2022-12-31T14:12:22;17.00;99.90
17639;DHT22;8938;53.546;9.954;2022-12-31T14:17:45;16.90;99.90
17639;DHT22;8938;53.546;9.954;2022-12-31T14:20:45;17.00;99.90
17639;DHT22;8938;53.546;9.954;2022-12-31T14:26:02;17.10;99.90
17639;DHT22;8938;53.546;9.954;2022-12-31T14:28:34;17.00;99.90
17639;DHT22;8938;53.546;9.954;2022-12-31T14:34:11;17.00;99.90
17639;DHT22;8938;53.546;9.954;2022-12-31T14:37:34;17.00;99.90
17639;DHT22;8938;53.546;9.954;2022-12-31T14:40:27;17.10;99.90
17639;DHT22;8938;53.546;9.954;2022-12-31T14:43:21;17.10;99.90
17639;DHT22;8938;53.546;9.954;2022-12-31T14:51:28;17.10;99.90
17639;DHT22;8938;53.546;9.954;2022-12-31T14:53:55;17.10;99.90
17639;DHT22;8938;53.546;9.954;2022-12-31T14:56:41;17.10;99.90
17639;DHT22;8938;53.546;9.954;2022-12-31T14:59:28;17.10;99.90
17639;DHT22;8938;53.546;9.954;2022-12-31T15:01:54;17.10;99.90
17639;DHT22;8938;53.546;9.954;2022-12-31T15:04:42;17.10;99.90
17639;DHT22;8938;53.546;9.954;2022-12-31T15:07:15;17.10;99.90
17639;DHT22;8938;53.546;9.954;2022-12-31T15:10:12;17.00;99.90
17639;DHT22;8938;53.546;9.954;2022-12-31T15:21:52;16.80;99.90
17639;DHT22;8938;53.546;9.954;2022-12-31T15:24:23;16.70;99.90
17639;DHT22;8938;53.546;9.954;2022-12-31T15:27:00;16.60;99.90
17639;DHT22;8938;53.546;9.954;2022-12-31T15:29:30;16.60;99.90
17639;DHT22;8938;53.546;9.954;2022-12-31T15:32:00;16.60;99.90
17639;DHT22;8938;53.546;9.954;2022-12-31T15:34:29;16.60;99.90
17639;DHT22;8938;53.546;9.954;2022-12-31T15:36:59;16.80;99.90
17639;DHT22;8938;53.546;9.954;2022-12-31T15:41:51;16.80;99.90
17639;DHT22;8938;53.546;9.954;2022-12-31T15:44:35;16.80;99.90
17639;DHT22;8938;53.546;9.954;2022-12-31T15:47:38;16.80;99.90
17639;DHT22;8938;53.546;9.954;2022-12-31T15:50:19;16.80;99.90
17639;DHT22;8938;53.546;9.954;2022-12-31T15:52:49;16.80;99.90
17639;DHT22;8938;53.546;9.954;2022-12-31T15:55:46;16.70;99.90
17639;DHT22;8938;53.546;9.954;2022-12-31T15:58:17;16.60;99.90
17639;DHT22;8938;53.546;9.954;2022-12-31T16:03:29;16.60;99.90
17639;DHT22;8938;53.546;9.954;2022-12-31T16:06:01;16.70;99.90
17639;DHT22;8938;53.546;9.954;2022-12-31T16:08:32;16.60;99.90
17639;DHT22;8938;53.546;9.954;2022-12-31T16:10:59;16.60;99.90
17639;DHT22;8938;53.546;9.954;2022-12-31T16:13:27;16.60;99.90
17639;DHT22;8938;53.546;9.954;2022-12-31T16:16:04;16.60;99.90
17639;DHT22;8938;53.546;9.954;2022-12-31T16:18:38;16.70;99.90
17639;DHT22;8938;53.546;9.954;2022-12-31T16:21:05;16.70;99.90
17639;DHT22;8938;53.546;9.954;2022-12-31T16:23:30;16.70;99.90
17639;DHT22;8938;53.546;9.954;2022-12-31T16:26:00;16.70;99.90
17639;DHT22;8938;53.546;9.954;2022-12-31T16:28:30;16.60;99.90
17639;DHT22;8938;53.546;9.954;2022-12-31T16:31:07;16.60;99.90
17639;DHT22;8938;53.546;9.954;2022-12-31T16:33:37;16.70;99.90
17639;DHT22;8938;53.546;9.954;2022-12-31T16:36:03;16.70;99.90
17639;DHT22;8938;53.546;9.954;2022-12-31T16:38:35;16.70;99.90
17639;DHT22;8938;53.546;9.954;2022-12-31T16:43:35;16.50;99.90
17639;DHT22;8938;53.546;9.954;2022-12-31T16:46:18;16.50;99.90
17639;DHT22;8938;53.546;9.954;2022-12-31T16:48:51;16.40;99.90
17639;DHT22;8938;53.546;9.954;2022-12-31T16:51:20;16.40;99.90
17639;DHT22;8938;53.546;9.954;2022-12-31T16:53:47;16.50;99.90
17639;DHT22;8938;53.546;9.954;2022-12-31T16:56:25;16.60;99.90
17639;DHT22;8938;53.546;9.954;2022-12-31T16:59:00;16.60;99.90
17639;DHT22;8938;53.546;9.954;2022-12-31T17:01:30;16.60;99.90
17639;DHT22;8938;53.546;9.954;2022-12-31T17:03:58;16.50;99.90
17639;DHT22;8938;53.546;9.954;2022-12-31T17:06:25;16.40;99.90
17639;DHT22;8938;53.546;9.954;2022-12-31T17:16:38;16.30;99.90
17639;DHT22;8938;53.546;9.954;2022-12-31T17:19:05;16.30;99.90
17639;DHT22;8938;53.546;9.954;2022-12-31T17:21:31;16.40;99.90
17639;DHT22;8938;53.546;9.954;2022-12-31T17:24:03;16.40;99.90
17639;DHT22;8938;53.546;9.954;2022-12-31T17:26:32;16.40;99.90
17639;DHT22;8938;53.546;9.954;2022-12-31T17:29:00;16.50;99.90
17639;DHT22;8938;53.546;9.954;2022-12-31T17:31:32;16.50;99.90
17639;DHT22;8938;53.546;9.954;2022-12-31T17:37:21;16.60;99.90
17639;DHT22;8938;53.546;9.954;2022-12-31T17:39:40;16.50;99.90
17639;DHT22;8938;53.546;9.954;2022-12-31T17:42:07;16.50;99.90
17639;DHT22;8938;53.546;9.954;2022-12-31T17:44:34;16.50;99.90
17639;DHT22;8938;53.546;9.954;2022-12-31T17:47:02;16.40;99.90
17639;DHT22;8938;53.546;9.954;2022-12-31T17:49:29;16.50;99.90
17639;DHT22;8938;53.546;9.954;2022-12-31T17:51:56;16.50;99.90
17639;DHT22;8938;53.546;9.954;2022-12-31T17:54:21;16.60;99.90
17639;DHT22;8938;53.546;9.954;2022-12-31T17:56:47;16.60;99.90
17639;DHT22;8938;53.546;9.954;2022-12-31T17:59:17;16.60;99.90
17639;DHT22;8938;53.546;9.954;2022-12-31T18:01:44;16.70;99.90
17639;DHT22;8938;53.546;9.954;2022-12-31T18:04:12;16.70;99.90
17639;DHT22;8938;53.546;9.954;2022-12-31T18:06:39;16.80;99.90
17639;DHT22;8938;53.546;9.954;2022-12-31T18:09:04;17.00;99.90
17639;DHT22;8938;53.546;9.954;2022-12-31T18:11:30;17.00;99.90
17639;DHT22;8938;53.546;9.954;2022-12-31T18:13:55;17.10;99.90
17639;DHT22;8938;53.546;9.954;2022-12-31T18:16:21;17.10;99.90
17639;DHT22;8938;53.546;9.954;2022-12-31T18:18:47;17.20;99.90
17639;DHT22;8938;53.546;9.954;2022-12-31T18:21:33;17.10;99.90
17639;DHT22;8938;53.546;9.954;2022-12-31T18:24:00;17.10;99.90
17639;DHT22;8938;53.546;9.954;2022-12-31T18:26:26;17.20;99.90
17639;DHT22;8938;53.546;9.954;2022-12-31T18:28:52;17.20;99.90
17639;DHT22;8938;53.546;9.954;2022-12-31T18:31:26;17.20;99.90
17639;DHT22;8938;53.546;9.954;2022-12-31T18:33:54;17.20;99.90
17639;DHT22;8938;53.546;9.954;2022-12-31T18:36:21;17.30;99.90
17639;DHT22;8938;53.546;9.954;2022-12-31T18:38:48;17.20;99.90
17639;DHT22;8938;53.546;9.954;2022-12-31T18:41:20;17.20;99.90
17639;DHT22;8938;53.546;9.954;2022-12-31T18:43:47;17.20;99.90
17639;DHT22;8938;53.546;9.954;2022-12-31T18:46:15;17.30;99.90
17639;DHT22;8938;53.546;9.954;2022-12-31T18:48:41;17.20;99.90
17639;DHT22;8938;53.546;9.954;2022-12-31T18:51:16;17.20;99.90
17639;DHT22;8938;53.546;9.954;2022-12-31T18:53:42;17.30;99.90
17639;DHT22;8938;53.546;9.954;2022-12-31T18:56:11;17.40;99.90
17639;DHT22;8938;53.546;9.954;2022-12-31T18:58:37;17.40;99.90
17639;DHT22;8938;53.546;9.954;2022-12-31T19:01:03;17.40;99.90
17639;DHT22;8938;53.546;9.954;2022-12-31T19:03:28;17.50;99.90
17639;DHT22;8938;53.546;9.954;2022-12-31T19:05:54;17.50;99.90
17639;DHT22;8938;53.546;9.954;2022-12-31T19:08:21;17.60;99.90
17639;DHT22;8938;53.546;9.954;2022-12-31T19:10:49;17.60;99.90
17639;DHT22;8938;53.546;9.954;2022-12-31T19:13:16;17.60;99.90
17639;DHT22;8938;53.546;9.954;2022-12-31T19:15:50;17.60;99.90
17639;DHT22;8938;53.546;9.954;2022-12-31T19:18:16;17.60;99.90
17639;DHT22;8938;53.546;9.954;2022-12-31T19:20:42;17.60;99.90
17639;DHT22;8938;53.546;9.954;2022-12-31T19:23:15;17.60;99.90
17639;DHT22;8938;53.546;9.954;2022-12-31T19:25:42;17.60;99.90
17639;DHT22;8938;53.546;9.954;2022-12-31T19:28:20;17.60;99.90
17639;DHT22;8938;53.546;9.954;2022-12-31T19:30:46;17.60;99.90
17639;DHT22;8938;53.546;9.954;2022-12-31T19:33:13;17.60;99.90
17639;DHT22;8938;53.546;9.954;2022-12-31T19:35:39;17.60;99.90
17639;DHT22;8938;53.546;9.954;2022-12-31T19:38:18;17.60;99.90
17639;DHT22;8938;53.546;9.954;2022-12-31T19:40:45;17.60;99.90
17639;DHT22;8938;53.546;9.954;2022-12-31T19:43:12;17.50;99.90
17639;DHT22;8938;53.546;9.954;2022-12-31T19:45:40;17.60;99.90
17639;DHT22;8938;53.546;9.954;2022-12-31T19:48:12;17.50;99.90
17639;DHT22;8938;53.546;9.954;2022-12-31T19:50:47;17.60;99.90
17639;DHT22;8938;53.546;9.954;2022-12-31T19:53:15;17.40;99.90
17639;DHT22;8938;53.546;9.954;2022-12-31T19:55:41;17.40;99.90
17639;DHT22;8938;53.546;9.954;2022-12-31T19:58:17;17.40;99.90
17639;DHT22;8938;53.546;9.954;2022-12-31T20:00:43;17.40;99.90